sensor_id;sensor_type;location;lat;lon;timestamp;temperature;humidity
18444;DHT22;9350;53.176;8.194;2023-02-21T00:01:38;9.50;99.90
18444;DHT22;9350;53.176;8.194;2023-02-21T00:04:22;9.50;99.90
18444;DHT22;9350;53.176;8.194;2023-02-21T00:07:06;9.50;99.90
18444;DHT22;9350;53.176;8.194;2023-02-21T00:09:50;9.50;99.90
18444;DHT22;9350;53.176;8.194;2023-02-21T00:12:36;9.40;99.90
18444;DHT22;9350;53.176;8.194;2023-02-21T00:15:20;9.50;99.90
18444;DHT22;9350;53.176;8.194;2023-02-21T00:18:04;9.40;99.90
18444;DHT22;9350;53.176;8.194;2023-02-21T00:20:48;9.50;99.90
18444;DHT22;9350;53.176;8.194;2023-02-21T00:23:33;9.50;99.90
18444;DHT22;9350;53.176;8.194;2023-02-21T00:26:17;9.50;99.90
18444;DHT22;9350;53.176;8.194;2023-02-21T00:29:03;9.50;99.90
18444;DHT22;9350;53.176;8.194;2023-02-21T00:31:47;9.50;99.90
18444;DHT22;9350;53.176;8.194;2023-02-21T00:34:32;9.60;99.90
18444;DHT22;9350;53.176;8.194;2023-02-21T00:37:16;9.60;99.90
18444;DHT22;9350;53.176;8.194;2023-02-21T00:40:00;11.00;99.90
18444;DHT22;9350;53.176;8.194;2023-02-21T00:42:44;9.70;99.90
18444;DHT22;9350;53.176;8.194;2023-02-21T00:45:30;9.70;99.90
18444;DHT22;9350;53.176;8.194;2023-02-21T00:48:18;9.60;99.90
18444;DHT22;9350;53.176;8.194;2023-02-21T00:51:03;9.70;99.90
18444;DHT22;9350;53.176;8.194;2023-02-21T00:53:47;9.60;99.90
18444;DHT22;9350;53.176;8.194;2023-02-21T00:56:31;9.50;99.90
18444;DHT22;9350;53.176;8.194;2023-02-21T00:59:15;9.60;99.90
18444;DHT22;9350;53.176;8.194;2023-02-21T01:02:01;9.60;99.90
18444;DHT22;9350;53.176;8.194;2023-02-21T01:04:45;9.60;99.90
18444;DHT22;9350;53.176;8.194;2023-02-21T01:07:30;9.60;99.90
18444;DHT22;9350;53.176;8.194;2023-02-21T01:10:14;9.50;99.90
18444;DHT22;9350;53.176;8.194;2023-02-21T01:12:58;9.50;99.90
18444;DHT22;9350;53.176;8.194;2023-02-21T01:15:43;9.50;99.90
18444;DHT22;9350;53.176;8.194;2023-02-21T01:18:28;9.50;99.90
18444;DHT22;9350;53.176;8.194;2023-02-21T01:21:14;9.50;99.90
18444;DHT22;9350;53.176;8.194;2023-02-21T01:23:58;9.50;99.90
18444;DHT22;9350;53.176;8.194;2023-02-21T01:26:42;9.60;99.90
18444;DHT22;9350;53.176;8.194;2023-02-21T01:29:26;9.50;99.90
18444;DHT22;9350;53.176;8.194;2023-02-21T01:32:11;9.50;99.90
18444;DHT22;9350;53.176;8.194;2023-02-21T01:34:56;9.50;99.90
18444;DHT22;9350;53.176;8.194;2023-02-21T01:37:41;9.40;99.90
18444;DHT22;9350;53.176;8.194;2023-02-21T01:40:26;9.50;99.90
18444;DHT22;9350;53.176;8.194;2023-02-21T01:43:14;9.50;99.90
18444;DHT22;9350;53.176;8.194;2023-02-21T01:45:58;9.50;99.90
18444;DHT22;9350;53.176;8.194;2023-02-21T01:48:42;9.40;99.90
18444;DHT22;9350;53.176;8.194;2023-02-21T01:51:32;9.50;99.90
18444;DHT22;9350;53.176;8.194;2023-02-21T01:54:17;9.40;99.90
18444;DHT22;9350;53.176;8.194;2023-02-21T01:57:03;9.40;99.90
18444;DHT22;9350;53.176;8.194;2023-02-21T01:59:50;9.40;99.90
18444;DHT22;9350;53.176;8.194;2023-02-21T02:02:38;9.40;99.90
18444;DHT22;9350;53.176;8.194;2023-02-21T02:05:26;9.40;99.90
18444;DHT22;9350;53.176;8.194;2023-02-21T02:08:12;9.40;99.90
18444;DHT22;9350;53.176;8.194;2023-02-21T02:11:03;9.40;99.90
18444;DHT22;9350;53.176;8.194;2023-02-21T02:14:10;9.40;99.90
18444;DHT22;9350;53.176;8.194;2023-02-21T02:16:44;9.50;99.90
18444;DHT22;9350;53.176;8.194;2023-02-21T02:19:50;9.40;99.90
18444;DHT22;9350;53.176;8.194;2023-02-21T02:22:38;9.40;99.90
18444;DHT22;9350;53.176;8.194;2023-02-21T02:25:18;9.40;99.90
18444;DHT22;9350;53.176;8.194;2023-02-21T02:27:59;9.40;99.90
18444;DHT22;9350;53.176;8.194;2023-02-21T02:31:08;9.50;99.90
18444;DHT22;9350;53.176;8.194;2023-02-21T02:36:38;9.40;99.90
18444;DHT22;9350;53.176;8.194;2023-02-21T02:39:14;9.40;99.90
18444;DHT22;9350;53.176;8.194;2023-02-21T02:41:48;9.40;99.90
18444;DHT22;9350;53.176;8.194;2023-02-21T02:44:20;9.40;99.90
18444;DHT22;9350;53.176;8.194;2023-02-21T02:46:50;9.50;99.90
18444;DHT22;9350;53.176;8.194;2023-02-21T02:49:19;9.50;99.90
18444;DHT22;9350;53.176;8.194;2023-02-21T02:51:49;9.40;99.90
18444;DHT22;9350;53.176;8.194;2023-02-21T02:54:17;9.40;99.90
18444;DHT22;9350;53.176;8.194;2023-02-21T02:56:44;9.40;99.90
18444;DHT22;9350;53.176;8.194;2023-02-21T02:59:16;9.50;99.90
18444;DHT22;9350;53.176;8.194;2023-02-21T03:02:02;9.40;99.90
18444;DHT22;9350;53.176;8.194;2023-02-21T03:04:54;9.40;99.90
18444;DHT22;9350;53.176;8.194;2023-02-21T03:07:33;9.40;99.90
18444;DHT22;9350;53.176;8.194;2023-02-21T03:10:13;9.40;99.90
18444;DHT22;9350;53.176;8.194;2023-02-21T03:12:46;9.30;99.90
18444;DHT22;9350;53.176;8.194;2023-02-21T03:15:17;9.40;99.90
18444;DHT22;9350;53.176;8.194;2023-02-21T03:17:48;9.40;99.90
18444;DHT22;9350;53.176;8.194;2023-02-21T03:20:17;9.30;99.90
18444;DHT22;9350;53.176;8.194;2023-02-21T03:22:47;9.40;99.90
18444;DHT22;9350;53.176;8.194;2023-02-21T03:25:15;9.30;99.90
18444;DHT22;9350;53.176;8.194;2023-02-21T03:27:44;9.30;99.90
18444;DHT22;9350;53.176;8.194;2023-02-21T03:30:11;9.40;99.90
18444;DHT22;9350;53.176;8.194;2023-02-21T03:32:41;9.30;99.90
18444;DHT22;9350;53.176;8.194;2023-02-21T03:35:08;9.30;99.90
18444;DHT22;9350;53.176;8.194;2023-02-21T03:37:37;9.40;99.90
18444;DHT22;9350;53.176;8.194;2023-02-21T03:40:09;9.40;99.90
18444;DHT22;9350;53.176;8.194;2023-02-21T03:42:36;9.40;99.90
18444;DHT22;9350;53.176;8.194;2023-02-21T03:45:03;9.40;99.90
18444;DHT22;9350;53.176;8.194;2023-02-21T03:47:29;9.30;99.90
18444;DHT22;9350;53.176;8.194;2023-02-21T03:49:56;9.30;99.90
18444;DHT22;9350;53.176;8.194;2023-02-21T03:52:23;9.40;99.90
18444;DHT22;9350;53.176;8.194;2023-02-21T03:54:51;9.40;99.90
18444;DHT22;9350;53.176;8.194;2023-02-21T03:57:20;9.30;99.90
18444;DHT22;9350;53.176;8.194;2023-02-21T03:59:46;9.30;99.90
18444;DHT22;9350;53.176;8.194;2023-02-21T04:02:13;9.30;99.90
18444;DHT22;9350;53.176;8.194;2023-02-21T04:04:40;9.30;99.90
18444;DHT22;9350;53.176;8.194;2023-02-21T04:07:07;9.30;99.90
18444;DHT22;9350;53.176;8.194;2023-02-21T04:09:35;9.30;99.90
18444;DHT22;9350;53.176;8.194;2023-02-21T04:12:03;9.40;99.90
18444;DHT22;9350;53.176;8.194;2023-02-21T04:14:32;9.30;99.90
18444;DHT22;9350;53.176;8.194;2023-02-21T04:16:58;9.30;99.90
18444;DHT22;9350;53.176;8.194;2023-02-21T04:19:25;9.30;99.90
18444;DHT22;9350;53.176;8.194;2023-02-21T04:21:52;9.50;99.90
18444;DHT22;9350;53.176;8.194;2023-02-21T04:24:19;9.30;99.90
18444;DHT22;9350;53.176;8.194;2023-02-21T04:26:46;9.30;99.90
18444;DHT22;9350;53.176;8.194;2023-02-21T04:29:12;9.50;99.90
18444;DHT22;9350;53.176;8.194;2023-02-21T04:31:41;9.30;99.90
18444;DHT22;9350;53.176;8.194;2023-02-21T04:34:07;9.30;99.90
18444;DHT22;9350;53.176;8.194;2023-02-21T04:36:34;9.30;99.90
18444;DHT22;9350;53.176;8.194;2023-02-21T04:39:03;9.40;99.90
18444;DHT22;9350;53.176;8.194;2023-02-21T04:41:29;9.30;99.90
18444;DHT22;9350;53.176;8.194;2023-02-21T04:43:56;9.40;99.90
18444;DHT22;9350;53.176;8.194;2023-02-21T04:46:23;9.40;99.90
18444;DHT22;9350;53.176;8.194;2023-02-21T04:48:51;9.40;99.90
18444;DHT22;9350;53.176;8.194;2023-02-21T04:51:21;9.30;99.90
18444;DHT22;9350;53.176;8.194;2023-02-21T04:53:48;9.30;99.90
18444;DHT22;9350;53.176;8.194;2023-02-21T04:56:17;9.30;99.90
18444;DHT22;9350;53.176;8.194;2023-02-21T04:58:45;9.30;99.90
18444;DHT22;9350;53.176;8.194;2023-02-21T05:01:12;9.30;99.90
18444;DHT22;9350;53.176;8.194;2023-02-21T05:03:39;9.30;99.90
18444;DHT22;9350;53.176;8.194;2023-02-21T05:06:07;9.30;99.90
18444;DHT22;9350;53.176;8.194;2023-02-21T05:08:35;9.40;99.90
18444;DHT22;9350;53.176;8.194;2023-02-21T05:11:02;9.40;99.90
18444;DHT22;9350;53.176;8.194;2023-02-21T05:13:29;9.90;99.90
18444;DHT22;9350;53.176;8.194;2023-02-21T05:15:56;9.40;99.90
18444;DHT22;9350;53.176;8.194;2023-02-21T05:18:22;9.40;99.90
18444;DHT22;9350;53.176;8.194;2023-02-21T05:20:53;9.30;99.90
18444;DHT22;9350;53.176;8.194;2023-02-21T05:23:22;9.30;99.90
18444;DHT22;9350;53.176;8.194;2023-02-21T05:25:58;9.30;99.90
18444;DHT22;9350;53.176;8.194;2023-02-21T05:28:25;9.30;99.90
18444;DHT22;9350;53.176;8.194;2023-02-21T05:30:52;9.40;99.90
18444;DHT22;9350;53.176;8.194;2023-02-21T05:33:19;9.30;99.90
18444;DHT22;9350;53.176;8.194;2023-02-21T05:35:45;9.30;99.90
18444;DHT22;9350;53.176;8.194;2023-02-21T05:38:13;9.30;99.90
18444;DHT22;9350;53.176;8.194;2023-02-21T05:40:41;9.30;99.90
18444;DHT22;9350;53.176;8.194;2023-02-21T05:43:07;9.30;99.90
18444;DHT22;9350;53.176;8.194;2023-02-21T05:45:34;9.30;99.90
18444;DHT22;9350;53.176;8.194;2023-02-21T05:48:01;9.30;99.90
18444;DHT22;9350;53.176;8.194;2023-02-21T05:50:28;9.30;99.90
18444;DHT22;9350;53.176;8.194;2023-02-21T05:52:55;9.30;99.90
18444;DHT22;9350;53.176;8.194;2023-02-21T05:55:23;9.20;99.90
18444;DHT22;9350;53.176;8.194;2023-02-21T05:57:51;9.30;99.90
18444;DHT22;9350;53.176;8.194;2023-02-21T06:00:20;9.30;99.90
18444;DHT22;9350;53.176;8.194;2023-02-21T06:02:48;9.30;99.90
18444;DHT22;9350;53.176;8.194;2023-02-21T06:05:15;9.20;99.90
18444;DHT22;9350;53.176;8.194;2023-02-21T06:07:42;9.20;99.90
18444;DHT22;9350;53.176;8.194;2023-02-21T06:10:09;9.30;99.90
18444;DHT22;9350;53.176;8.194;2023-02-21T06:12:36;9.30;99.90
18444;DHT22;9350;53.176;8.194;2023-02-21T06:15:05;9.30;99.90
18444;DHT22;9350;53.176;8.194;2023-02-21T06:17:32;9.30;99.90
18444;DHT22;9350;53.176;8.194;2023-02-21T06:19:58;9.30;99.90
18444;DHT22;9350;53.176;8.194;2023-02-21T06:22:25;9.30;99.90
18444;DHT22;9350;53.176;8.194;2023-02-21T06:24:52;9.30;99.90
18444;DHT22;9350;53.176;8.194;2023-02-21T06:27:19;9.30;99.90
18444;DHT22;9350;53.176;8.194;2023-02-21T06:29:45;9.30;99.90
18444;DHT22;9350;53.176;8.194;2023-02-21T06:32:14;9.40;99.90
18444;DHT22;9350;53.176;8.194;2023-02-21T06:34:42;9.30;99.90
18444;DHT22;9350;53.176;8.194;2023-02-21T06:37:09;9.30;99.90
18444;DHT22;9350;53.176;8.194;2023-02-21T06:39:37;9.20;99.90
18444;DHT22;9350;53.176;8.194;2023-02-21T06:42:04;9.30;99.90
18444;DHT22;9350;53.176;8.194;2023-02-21T06:44:31;9.40;99.90
18444;DHT22;9350;53.176;8.194;2023-02-21T06:46:58;9.30;99.90
18444;DHT22;9350;53.176;8.194;2023-02-21T06:49:26;9.20;99.90
18444;DHT22;9350;53.176;8.194;2023-02-21T06:51:53;9.20;99.90
18444;DHT22;9350;53.176;8.194;2023-02-21T06:54:20;9.30;99.90
18444;DHT22;9350;53.176;8.194;2023-02-21T06:56:47;9.30;99.90
18444;DHT22;9350;53.176;8.194;2023-02-21T06:59:13;9.20;99.90
18444;DHT22;9350;53.176;8.194;2023-02-21T07:01:40;9.30;99.90
18444;DHT22;9350;53.176;8.194;2023-02-21T07:04:07;9.20;99.90
18444;DHT22;9350;53.176;8.194;2023-02-21T07:06:35;9.30;99.90
18444;DHT22;9350;53.176;8.194;2023-02-21T07:09:03;9.20;99.90
18444;DHT22;9350;53.176;8.194;2023-02-21T07:11:31;9.30;99.90
18444;DHT22;9350;53.176;8.194;2023-02-21T07:13:58;9.20;99.90
18444;DHT22;9350;53.176;8.194;2023-02-21T07:16:25;9.20;99.90
18444;DHT22;9350;53.176;8.194;2023-02-21T07:18:52;9.30;99.90
18444;DHT22;9350;53.176;8.194;2023-02-21T07:21:20;9.30;99.90
18444;DHT22;9350;53.176;8.194;2023-02-21T07:23:48;9.20;99.90
18444;DHT22;9350;53.176;8.194;2023-02-21T07:26:15;9.40;99.90
18444;DHT22;9350;53.176;8.194;2023-02-21T07:28:42;9.30;99.90
18444;DHT22;9350;53.176;8.194;2023-02-21T07:31:08;9.20;99.90
18444;DHT22;9350;53.176;8.194;2023-02-21T07:33:36;9.30;99.90
18444;DHT22;9350;53.176;8.194;2023-02-21T07:36:03;9.40;99.90
18444;DHT22;9350;53.176;8.194;2023-02-21T07:38:30;9.40;99.90
18444;DHT22;9350;53.176;8.194;2023-02-21T07:41:00;9.30;99.90
18444;DHT22;9350;53.176;8.194;2023-02-21T07:43:28;9.30;99.90
18444;DHT22;9350;53.176;8.194;2023-02-21T07:45:56;9.40;99.90
18444;DHT22;9350;53.176;8.194;2023-02-21T07:48:22;9.40;99.90
18444;DHT22;9350;53.176;8.194;2023-02-21T07:50:50;9.40;99.90
18444;DHT22;9350;53.176;8.194;2023-02-21T07:53:16;9.40;99.90
18444;DHT22;9350;53.176;8.194;2023-02-21T07:55:43;9.40;99.90
18444;DHT22;9350;53.176;8.194;2023-02-21T07:58:11;9.40;99.90
18444;DHT22;9350;53.176;8.194;2023-02-21T08:00:38;9.40;99.90
18444;DHT22;9350;53.176;8.194;2023-02-21T08:03:05;9.40;99.90
18444;DHT22;9350;53.176;8.194;2023-02-21T08:05:32;9.40;99.90
18444;DHT22;9350;53.176;8.194;2023-02-21T08:07:58;9.40;99.90
18444;DHT22;9350;53.176;8.194;2023-02-21T08:10:26;9.40;99.90
18444;DHT22;9350;53.176;8.194;2023-02-21T08:12:53;9.40;99.90
18444;DHT22;9350;53.176;8.194;2023-02-21T08:15:22;9.50;99.90
18444;DHT22;9350;53.176;8.194;2023-02-21T08:17:49;9.40;99.90
18444;DHT22;9350;53.176;8.194;2023-02-21T08:20:16;9.40;99.90
18444;DHT22;9350;53.176;8.194;2023-02-21T08:22:44;9.40;99.90
18444;DHT22;9350;53.176;8.194;2023-02-21T08:25:11;9.40;99.90
18444;DHT22;9350;53.176;8.194;2023-02-21T08:27:39;9.40;99.90
18444;DHT22;9350;53.176;8.194;2023-02-21T08:30:06;9.40;99.90
18444;DHT22;9350;53.176;8.194;2023-02-21T08:32:34;9.40;99.90
18444;DHT22;9350;53.176;8.194;2023-02-21T08:35:02;9.40;99.90
18444;DHT22;9350;53.176;8.194;2023-02-21T08:37:30;9.40;99.90
18444;DHT22;9350;53.176;8.194;2023-02-21T08:40:01;9.40;99.90
18444;DHT22;9350;53.176;8.194;2023-02-21T08:42:29;9.50;99.90
18444;DHT22;9350;53.176;8.194;2023-02-21T08:44:56;9.50;99.90
18444;DHT22;9350;53.176;8.194;2023-02-21T08:47:23;9.50;99.90
18444;DHT22;9350;53.176;8.194;2023-02-21T08:49:51;9.50;99.90
18444;DHT22;9350;53.176;8.194;2023-02-21T08:52:19;9.50;99.90
18444;DHT22;9350;53.176;8.194;2023-02-21T08:54:46;9.50;99.90
18444;DHT22;9350;53.176;8.194;2023-02-21T08:57:13;9.60;99.90
18444;DHT22;9350;53.176;8.194;2023-02-21T08:59:40;9.50;99.90
18444;DHT22;9350;53.176;8.194;2023-02-21T09:02:13;9.50;99.90
18444;DHT22;9350;53.176;8.194;2023-02-21T09:04:40;9.50;99.90
18444;DHT22;9350;53.176;8.194;2023-02-21T09:07:10;9.50;99.90
18444;DHT22;9350;53.176;8.194;2023-02-21T09:09:37;9.50;99.90
18444;DHT22;9350;53.176;8.194;2023-02-21T09:12:05;9.50;99.90
18444;DHT22;9350;53.176;8.194;2023-02-21T09:14:33;9.50;99.90
18444;DHT22;9350;53.176;8.194;2023-02-21T09:17:00;9.50;99.90
18444;DHT22;9350;53.176;8.194;2023-02-21T09:19:27;9.50;99.90
18444;DHT22;9350;53.176;8.194;2023-02-21T09:21:54;9.60;99.90
18444;DHT22;9350;53.176;8.194;2023-02-21T09:24:23;9.60;99.90
18444;DHT22;9350;53.176;8.194;2023-02-21T09:26:51;9.70;99.90
18444;DHT22;9350;53.176;8.194;2023-02-21T09:29:19;9.70;99.90
18444;DHT22;9350;53.176;8.194;2023-02-21T09:31:47;9.70;99.90
18444;DHT22;9350;53.176;8.194;2023-02-21T09:34:14;9.70;99.90
18444;DHT22;9350;53.176;8.194;2023-02-21T09:36:41;9.70;99.90
18444;DHT22;9350;53.176;8.194;2023-02-21T09:39:08;9.60;99.90
18444;DHT22;9350;53.176;8.194;2023-02-21T09:41:36;9.70;99.90
18444;DHT22;9350;53.176;8.194;2023-02-21T09:44:05;9.70;99.90
18444;DHT22;9350;53.176;8.194;2023-02-21T09:46:35;9.70;99.90
18444;DHT22;9350;53.176;8.194;2023-02-21T09:49:09;9.70;99.90
18444;DHT22;9350;53.176;8.194;2023-02-21T09:51:39;9.70;99.90
18444;DHT22;9350;53.176;8.194;2023-02-21T09:54:14;9.70;99.90
18444;DHT22;9350;53.176;8.194;2023-02-21T09:56:45;9.70;99.90
18444;DHT22;9350;53.176;8.194;2023-02-21T09:59:12;9.80;99.90
18444;DHT22;9350;53.176;8.194;2023-02-21T10:01:49;9.80;99.90
18444;DHT22;9350;53.176;8.194;2023-02-21T10:04:22;9.80;99.90
18444;DHT22;9350;53.176;8.194;2023-02-21T10:06:52;9.80;99.90
18444;DHT22;9350;53.176;8.194;2023-02-21T10:09:26;9.80;99.90
18444;DHT22;9350;53.176;8.194;2023-02-21T10:12:07;9.80;99.90
18444;DHT22;9350;53.176;8.194;2023-02-21T10:14:46;9.80;99.90
18444;DHT22;9350;53.176;8.194;2023-02-21T10:17:19;10.10;99.90
18444;DHT22;9350;53.176;8.194;2023-02-21T10:19:52;9.80;99.90
18444;DHT22;9350;53.176;8.194;2023-02-21T10:22:24;10.10;99.90
18444;DHT22;9350;53.176;8.194;2023-02-21T10:24:52;9.90;99.90
18444;DHT22;9350;53.176;8.194;2023-02-21T10:27:22;9.90;99.90
18444;DHT22;9350;53.176;8.194;2023-02-21T10:29:53;9.80;99.90
18444;DHT22;9350;53.176;8.194;2023-02-21T10:32:22;9.90;99.90
18444;DHT22;9350;53.176;8.194;2023-02-21T10:34:50;9.80;99.90
18444;DHT22;9350;53.176;8.194;2023-02-21T10:37:32;9.80;99.90
18444;DHT22;9350;53.176;8.194;2023-02-21T10:40:09;9.90;99.90
18444;DHT22;9350;53.176;8.194;2023-02-21T10:42:46;9.80;99.90
18444;DHT22;9350;53.176;8.194;2023-02-21T10:45:22;9.90;99.90
18444;DHT22;9350;53.176;8.194;2023-02-21T10:47:57;9.80;99.90
18444;DHT22;9350;53.176;8.194;2023-02-21T10:50:37;9.80;99.90
18444;DHT22;9350;53.176;8.194;2023-02-21T10:53:05;9.90;99.90
18444;DHT22;9350;53.176;8.194;2023-02-21T10:55:33;9.90;99.90
18444;DHT22;9350;53.176;8.194;2023-02-21T10:58:07;9.90;99.90
18444;DHT22;9350;53.176;8.194;2023-02-21T11:00:36;10.10;99.90
18444;DHT22;9350;53.176;8.194;2023-02-21T11:03:06;10.00;99.90
18444;DHT22;9350;53.176;8.194;2023-02-21T11:05:34;10.00;99.90
18444;DHT22;9350;53.176;8.194;2023-02-21T11:08:05;10.00;99.90
18444;DHT22;9350;53.176;8.194;2023-02-21T11:10:33;10.10;99.90
18444;DHT22;9350;53.176;8.194;2023-02-21T11:13:11;10.00;99.90
18444;DHT22;9350;53.176;8.194;2023-02-21T11:15:38;10.00;99.90
18444;DHT22;9350;53.176;8.194;2023-02-21T11:18:12;9.90;99.90
18444;DHT22;9350;53.176;8.194;2023-02-21T11:20:39;9.90;99.90
18444;DHT22;9350;53.176;8.194;2023-02-21T11:23:18;9.90;99.90
18444;DHT22;9350;53.176;8.194;2023-02-21T11:25:46;10.00;99.90
18444;DHT22;9350;53.176;8.194;2023-02-21T11:28:19;10.00;99.90
18444;DHT22;9350;53.176;8.194;2023-02-21T11:30:49;10.00;99.90
18444;DHT22;9350;53.176;8.194;2023-02-21T11:33:19;10.00;99.90
18444;DHT22;9350;53.176;8.194;2023-02-21T11:35:47;10.10;99.90
18444;DHT22;9350;53.176;8.194;2023-02-21T11:38:32;10.00;99.90
18444;DHT22;9350;53.176;8.194;2023-02-21T11:41:01;9.90;99.90
18444;DHT22;9350;53.176;8.194;2023-02-21T11:43:31;10.00;99.90
18444;DHT22;9350;53.176;8.194;2023-02-21T11:46:07;10.00;99.90
18444;DHT22;9350;53.176;8.194;2023-02-21T11:48:41;10.00;99.90
18444;DHT22;9350;53.176;8.194;2023-02-21T11:51:20;10.10;99.90
18444;DHT22;9350;53.176;8.194;2023-02-21T11:53:51;10.10;99.90
18444;DHT22;9350;53.176;8.194;2023-02-21T11:56:27;10.20;99.90
18444;DHT22;9350;53.176;8.194;2023-02-21T11:59:02;10.10;99.90
18444;DHT22;9350;53.176;8.194;2023-02-21T12:01:37;10.10;99.90
18444;DHT22;9350;53.176;8.194;2023-02-21T12:07:09;10.10;99.90
18444;DHT22;9350;53.176;8.194;2023-02-21T12:09:43;10.10;99.90
18444;DHT22;9350;53.176;8.194;2023-02-21T12:12:23;10.10;99.90
18444;DHT22;9350;53.176;8.194;2023-02-21T12:15:00;10.20;99.90
18444;DHT22;9350;53.176;8.194;2023-02-21T12:17:47;10.20;99.90
18444;DHT22;9350;53.176;8.194;2023-02-21T12:20:39;10.20;99.90
18444;DHT22;9350;53.176;8.194;2023-02-21T12:23:15;10.40;99.90
18444;DHT22;9350;53.176;8.194;2023-02-21T12:25:56;10.30;99.90
18444;DHT22;9350;53.176;8.194;2023-02-21T12:28:33;10.30;99.90
18444;DHT22;9350;53.176;8.194;2023-02-21T12:31:16;10.40;99.90
18444;DHT22;9350;53.176;8.194;2023-02-21T12:33:51;10.40;99.90
18444;DHT22;9350;53.176;8.194;2023-02-21T12:36:46;10.40;99.90
18444;DHT22;9350;53.176;8.194;2023-02-21T12:39:29;10.40;99.90
18444;DHT22;9350;53.176;8.194;2023-02-21T12:42:12;10.50;99.90
18444;DHT22;9350;53.176;8.194;2023-02-21T12:44:50;10.50;99.90
18444;DHT22;9350;53.176;8.194;2023-02-21T12:47:25;10.50;99.90
18444;DHT22;9350;53.176;8.194;2023-02-21T12:49:57;10.50;99.90
18444;DHT22;9350;53.176;8.194;2023-02-21T12:52:29;10.40;99.90
18444;DHT22;9350;53.176;8.194;2023-02-21T12:55:02;10.40;99.90
18444;DHT22;9350;53.176;8.194;2023-02-21T12:57:35;10.40;99.90
18444;DHT22;9350;53.176;8.194;2023-02-21T13:00:13;10.50;99.90
18444;DHT22;9350;53.176;8.194;2023-02-21T13:02:52;10.40;99.90
18444;DHT22;9350;53.176;8.194;2023-02-21T13:05:26;10.40;99.90
18444;DHT22;9350;53.176;8.194;2023-02-21T13:08:00;10.50;99.90
18444;DHT22;9350;53.176;8.194;2023-02-21T13:10:35;10.50;99.90
18444;DHT22;9350;53.176;8.194;2023-02-21T13:13:09;10.50;99.90
18444;DHT22;9350;53.176;8.194;2023-02-21T13:15:39;10.50;99.90
18444;DHT22;9350;53.176;8.194;2023-02-21T13:18:14;10.50;99.90
18444;DHT22;9350;53.176;8.194;2023-02-21T13:20:45;10.60;99.90
18444;DHT22;9350;53.176;8.194;2023-02-21T13:23:40;10.60;99.90
18444;DHT22;9350;53.176;8.194;2023-02-21T13:26:21;10.70;99.90
18444;DHT22;9350;53.176;8.194;2023-02-21T13:28:51;10.70;99.90
18444;DHT22;9350;53.176;8.194;2023-02-21T13:31:22;10.70;99.90
18444;DHT22;9350;53.176;8.194;2023-02-21T13:33:52;10.80;99.90
18444;DHT22;9350;53.176;8.194;2023-02-21T13:36:24;10.70;99.90
18444;DHT22;9350;53.176;8.194;2023-02-21T13:39:02;10.80;99.90
18444;DHT22;9350;53.176;8.194;2023-02-21T13:41:33;10.80;99.90
18444;DHT22;9350;53.176;8.194;2023-02-21T13:44:05;10.80;99.90
18444;DHT22;9350;53.176;8.194;2023-02-21T13:47:03;10.80;99.90
18444;DHT22;9350;53.176;8.194;2023-02-21T13:49:46;10.80;99.90
18444;DHT22;9350;53.176;8.194;2023-02-21T13:52:35;10.80;99.90
18444;DHT22;9350;53.176;8.194;2023-02-21T14:01:40;10.70;99.90
18444;DHT22;9350;53.176;8.194;2023-02-21T14:07:48;10.70;99.90
18444;DHT22;9350;53.176;8.194;2023-02-21T14:10:22;10.70;99.90
18444;DHT22;9350;53.176;8.194;2023-02-21T14:12:54;10.80;99.90
18444;DHT22;9350;53.176;8.194;2023-02-21T14:15:21;10.80;99.90
18444;DHT22;9350;53.176;8.194;2023-02-21T14:17:50;10.80;99.90
18444;DHT22;9350;53.176;8.194;2023-02-21T14:20:20;10.70;99.90
18444;DHT22;9350;53.176;8.194;2023-02-21T14:22:50;10.70;99.90
18444;DHT22;9350;53.176;8.194;2023-02-21T14:25:21;10.70;99.90
18444;DHT22;9350;53.176;8.194;2023-02-21T14:27:50;10.70;99.90
18444;DHT22;9350;53.176;8.194;2023-02-21T14:30:28;10.60;99.90
18444;DHT22;9350;53.176;8.194;2023-02-21T14:33:07;10.60;99.90
18444;DHT22;9350;53.176;8.194;2023-02-21T14:35:38;10.60;99.90
18444;DHT22;9350;53.176;8.194;2023-02-21T14:38:19;10.60;99.90
18444;DHT22;9350;53.176;8.194;2023-02-21T14:40:57;10.50;99.90
18444;DHT22;9350;53.176;8.194;2023-02-21T14:43:38;10.50;99.90
18444;DHT22;9350;53.176;8.194;2023-02-21T14:46:36;10.60;99.90
18444;DHT22;9350;53.176;8.194;2023-02-21T14:49:42;10.50;99.90
18444;DHT22;9350;53.176;8.194;2023-02-21T14:52:27;10.60;99.90
18444;DHT22;9350;53.176;8.194;2023-02-21T14:58:25;10.60;99.90
18444;DHT22;9350;53.176;8.194;2023-02-21T15:01:03;10.60;99.90
18444;DHT22;9350;53.176;8.194;2023-02-21T15:03:35;10.60;99.90
18444;DHT22;9350;53.176;8.194;2023-02-21T15:06:06;10.60;99.90
18444;DHT22;9350;53.176;8.194;2023-02-21T15:08:40;10.70;99.90
18444;DHT22;9350;53.176;8.194;2023-02-21T15:11:19;10.60;99.90
18444;DHT22;9350;53.176;8.194;2023-02-21T15:13:48;10.60;99.90
18444;DHT22;9350;53.176;8.194;2023-02-21T15:16:35;10.70;99.90
18444;DHT22;9350;53.176;8.194;2023-02-21T15:19:03;10.70;99.90
18444;DHT22;9350;53.176;8.194;2023-02-21T15:21:29;10.80;99.90
18444;DHT22;9350;53.176;8.194;2023-02-21T15:24:01;10.70;99.90
18444;DHT22;9350;53.176;8.194;2023-02-21T15:26:30;10.60;99.90
18444;DHT22;9350;53.176;8.194;2023-02-21T15:29:06;10.70;99.90
18444;DHT22;9350;53.176;8.194;2023-02-21T15:31:35;10.60;99.90
18444;DHT22;9350;53.176;8.194;2023-02-21T15:34:04;10.60;99.90
18444;DHT22;9350;53.176;8.194;2023-02-21T15:36:31;10.60;99.90
18444;DHT22;9350;53.176;8.194;2023-02-21T15:39:04;10.60;99.90
18444;DHT22;9350;53.176;8.194;2023-02-21T15:41:37;10.60;99.90
18444;DHT22;9350;53.176;8.194;2023-02-21T15:44:09;10.50;99.90
18444;DHT22;9350;53.176;8.194;2023-02-21T15:46:41;10.60;99.90
18444;DHT22;9350;53.176;8.194;2023-02-21T15:49:15;10.60;99.90
18444;DHT22;9350;53.176;8.194;2023-02-21T15:51:43;10.50;99.90
18444;DHT22;9350;53.176;8.194;2023-02-21T15:54:23;10.50;99.90
18444;DHT22;9350;53.176;8.194;2023-02-21T15:57:02;10.60;99.90
18444;DHT22;9350;53.176;8.194;2023-02-21T15:59:31;10.50;99.90
18444;DHT22;9350;53.176;8.194;2023-02-21T16:02:13;10.60;99.90
18444;DHT22;9350;53.176;8.194;2023-02-21T16:04:41;10.50;99.90
18444;DHT22;9350;53.176;8.194;2023-02-21T16:07:15;10.40;99.90
18444;DHT22;9350;53.176;8.194;2023-02-21T16:09:45;10.50;99.90
18444;DHT22;9350;53.176;8.194;2023-02-21T16:12:30;10.40;99.90
18444;DHT22;9350;53.176;8.194;2023-02-21T16:15:00;10.40;99.90
18444;DHT22;9350;53.176;8.194;2023-02-21T16:17:29;10.40;99.90
18444;DHT22;9350;53.176;8.194;2023-02-21T16:19:59;10.40;99.90
18444;DHT22;9350;53.176;8.194;2023-02-21T16:22:29;10.40;99.90
18444;DHT22;9350;53.176;8.194;2023-02-21T16:25:06;10.40;99.90
18444;DHT22;9350;53.176;8.194;2023-02-21T16:27:35;10.40;99.90
18444;DHT22;9350;53.176;8.194;2023-02-21T16:30:03;10.40;99.90
18444;DHT22;9350;53.176;8.194;2023-02-21T16:32:30;10.40;99.90
18444;DHT22;9350;53.176;8.194;2023-02-21T16:34:57;10.40;99.90
18444;DHT22;9350;53.176;8.194;2023-02-21T16:37:24;10.40;99.90
18444;DHT22;9350;53.176;8.194;2023-02-21T16:39:52;10.40;99.90
18444;DHT22;9350;53.176;8.194;2023-02-21T16:42:19;10.40;99.90
18444;DHT22;9350;53.176;8.194;2023-02-21T16:44:47;10.40;99.90
18444;DHT22;9350;53.176;8.194;2023-02-21T16:47:15;10.40;99.90
18444;DHT22;9350;53.176;8.194;2023-02-21T16:49:43;10.30;99.90
18444;DHT22;9350;53.176;8.194;2023-02-21T16:52:13;10.30;99.90
18444;DHT22;9350;53.176;8.194;2023-02-21T16:54:39;10.30;99.90